Time;durP1;ratioP1;P1;durP2;ratioP2;P2;SDS_P1;SDS_P2;PMS_P1;PMS_P2;Temp;Humidity;BMP_temperature;BMP_pressure;BME280_temperature;BME280_humidity;BME280_pressure;Samples;Min_cycle;Max_cycle;Signal;HPM_P1;HPM_P2
2022/06/29 00:00:25;;;;;;;5.35;1.45;;;14.60;99.90;;;;;;4972104;28;20021;-95
2022/06/29 00:05:30;;;;;;;11.75;1.40;;;14.60;99.90;;;;;;5088582;23;20189;-94
2022/06/29 00:07:57;;;;;;;10.57;1.55;;;14.60;99.90;;;;;;4985154;28;20073;-95
2022/06/29 00:10:24;;;;;;;7.53;1.83;;;14.60;99.90;;;;;;4991334;28;20046;-95
2022/06/29 00:12:53;;;;;;;9.77;1.90;;;14.70;99.90;;;;;;4992475;28;20049;-95
2022/06/29 00:15:22;;;;;;;7.05;1.30;;;14.70;99.90;;;;;;4991771;28;20098;-96
2022/06/29 00:17:48;;;;;;;7.40;1.48;;;14.70;99.90;;;;;;5010550;28;20031;-95
2022/06/29 00:20:21;;;;;;;11.98;1.50;;;14.70;99.90;;;;;;5000785;28;20023;-95
2022/06/29 00:22:49;;;;;;;6.50;1.50;;;14.70;99.90;;;;;;4996322;28;20089;-96
2022/06/29 00:25:42;;;;;;;6.60;1.63;;;14.70;99.90;;;;;;4990232;28;20122;-95
2022/06/29 00:28:09;;;;;;;7.20;2.05;;;14.70;99.90;;;;;;4989409;28;20503;-95
2022/06/29 00:30:43;;;;;;;7.43;1.33;;;14.60;99.90;;;;;;4993498;28;20186;-96
2022/06/29 00:33:11;;;;;;;9.45;1.30;;;14.60;99.90;;;;;;4991787;28;20046;-94
2022/06/29 00:35:37;;;;;;;8.63;1.20;;;14.60;99.90;;;;;;4978827;28;20062;-95
2022/06/29 00:38:03;;;;;;;9.48;1.60;;;14.60;99.90;;;;;;4987181;28;20589;-95
2022/06/29 00:40:32;;;;;;;9.35;1.33;;;14.60;99.90;;;;;;4987544;28;20050;-95
2022/06/29 00:42:58;;;;;;;7.53;1.90;;;14.60;99.90;;;;;;4988917;28;20026;-95
2022/06/29 00:45:23;;;;;;;7.10;1.80;;;14.50;99.90;;;;;;4992638;28;20443;-96
2022/06/29 00:47:49;;;;;;;13.52;1.80;;;14.50;99.90;;;;;;4987429;28;20030;-95
2022/06/29 00:50:15;;;;;;;10.38;1.73;;;14.50;99.90;;;;;;4986875;28;20027;-95
2022/06/29 00:52:50;;;;;;;13.15;2.05;;;14.50;99.90;;;;;;4989596;28;20034;-95
2022/06/29 00:55:22;;;;;;;11.27;1.50;;;14.40;99.90;;;;;;5001951;28;20030;-95
2022/06/29 00:57:50;;;;;;;10.30;1.35;;;14.40;99.90;;;;;;4996669;28;20014;-96
2022/06/29 01:00:17;;;;;;;8.85;1.40;;;14.40;99.90;;;;;;5000300;28;20083;-95
2022/06/29 01:02:45;;;;;;;10.18;1.80;;;14.40;99.90;;;;;;5017595;28;20026;-93
2022/06/29 01:05:14;;;;;;;9.98;1.40;;;14.40;99.90;;;;;;5001015;28;20061;-95
2022/06/29 01:07:40;;;;;;;3.97;1.20;;;14.40;99.90;;;;;;5017563;28;20038;-95
2022/06/29 01:10:06;;;;;;;11.88;1.90;;;14.40;99.90;;;;;;5001146;28;20041;-95
2022/06/29 01:12:32;;;;;;;11.10;1.67;;;14.40;99.90;;;;;;5001200;28;20053;-94
2022/06/29 01:15:00;;;;;;;6.70;1.48;;;14.40;99.90;;;;;;4985858;28;20113;-95
2022/06/29 01:17:26;;;;;;;8.38;1.77;;;14.40;99.90;;;;;;4997910;28;20514;-94
2022/06/29 01:19:53;;;;;;;10.50;1.92;;;14.40;99.90;;;;;;4979956;28;20022;-95
2022/06/29 01:22:21;;;;;;;8.00;2.00;;;14.30;99.90;;;;;;4996050;28;20023;-95
2022/06/29 01:24:48;;;;;;;9.43;1.83;;;14.30;99.90;;;;;;4981464;28;20388;-95
2022/06/29 01:27:16;;;;;;;7.70;1.33;;;14.20;99.90;;;;;;4981088;28;20026;-95
2022/06/29 01:29:42;;;;;;;11.77;1.73;;;14.20;99.90;;;;;;4980431;28;20022;-95
2022/06/29 01:32:09;;;;;;;7.25;1.67;;;14.10;99.90;;;;;;4996862;28;20026;-95
2022/06/29 01:34:35;;;;;;;6.35;1.50;;;14.10;99.90;;;;;;4984176;28;20034;-95
2022/06/29 01:37:02;;;;;;;9.63;1.52;;;14.00;99.90;;;;;;4983843;28;20026;-94
2022/06/29 01:39:29;;;;;;;6.00;1.67;;;14.00;99.90;;;;;;4982983;28;20026;-94
2022/06/29 01:41:55;;;;;;;7.82;1.48;;;14.00;99.90;;;;;;4980751;28;20080;-94
2022/06/29 01:44:22;;;;;;;6.13;1.27;;;14.00;99.90;;;;;;4981043;28;20065;-96
2022/06/29 01:46:48;;;;;;;3.97;1.25;;;13.90;99.90;;;;;;4980034;28;20061;-94
2022/06/29 01:49:14;;;;;;;8.13;2.28;;;13.90;99.90;;;;;;4979527;28;20034;-94
2022/06/29 01:51:40;;;;;;;15.65;2.45;;;13.90;99.90;;;;;;4982098;28;20034;-95
2022/06/29 01:54:06;;;;;;;6.88;1.27;;;13.80;99.90;;;;;;4987165;28;20054;-95
2022/06/29 01:56:32;;;;;;;8.02;1.73;;;13.80;99.90;;;;;;4995734;28;20030;-95
2022/06/29 01:58:58;;;;;;;11.05;1.60;;;13.80;99.90;;;;;;5000554;28;20080;-95
2022/06/29 02:01:24;;;;;;;9.68;1.60;;;13.70;99.90;;;;;;4998866;28;20053;-93
2022/06/29 02:03:51;;;;;;;7.22;1.65;;;13.70;99.90;;;;;;4982331;28;20060;-93
2022/06/29 02:06:17;;;;;;;10.02;2.13;;;13.60;99.90;;;;;;4977316;28;20038;-92
2022/06/29 02:08:44;;;;;;;7.65;2.47;;;13.60;99.90;;;;;;4977379;28;20026;-93
2022/06/29 02:11:10;;;;;;;8.52;1.83;;;13.60;99.90;;;;;;4978035;28;20050;-94
2022/06/29 02:13:36;;;;;;;7.15;1.95;;;13.50;99.90;;;;;;4978897;28;20019;-94
2022/06/29 02:16:02;;;;;;;10.13;2.10;;;13.50;99.90;;;;;;4979572;28;20030;-94
2022/06/29 02:18:27;;;;;;;9.65;2.05;;;13.50;99.90;;;;;;4980200;28;20090;-94
2022/06/29 02:20:53;;;;;;;5.97;1.70;;;13.50;99.90;;;;;;4979644;28;20479;-94
2022/06/29 02:23:21;;;;;;;10.07;2.63;;;13.40;99.90;;;;;;4977414;28;20040;-93
2022/06/29 02:25:48;;;;;;;11.13;1.95;;;13.40;99.90;;;;;;4978100;28;20050;-95
2022/06/29 02:28:14;;;;;;;8.57;1.60;;;13.40;99.90;;;;;;4978229;28;20353;-93
2022/06/29 02:36:13;;;;;;;4.88;1.55;;;13.30;99.90;;;;;;4915159;29;20031;-94
2022/06/29 02:38:39;;;;;;;6.75;1.50;;;13.30;99.90;;;;;;4915149;29;20131;-93
2022/06/29 02:41:05;;;;;;;3.53;1.45;;;13.30;99.90;;;;;;4899318;29;20120;-92
2022/06/29 02:43:31;;;;;;;5.70;1.30;;;13.20;99.90;;;;;;4899264;29;20493;-94
2022/06/29 02:45:57;;;;;;;5.68;1.60;;;13.30;99.90;;;;;;4899629;29;20044;-93
2022/06/29 02:48:23;;;;;;;4.90;1.25;;;13.30;99.90;;;;;;4898827;29;20029;-93
2022/06/29 02:50:48;;;;;;;3.58;1.45;;;13.30;99.90;;;;;;4899100;29;20044;-93
2022/06/29 02:53:14;;;;;;;2.67;1.38;;;13.30;99.90;;;;;;4915178;29;20029;-94
2022/06/29 02:55:40;;;;;;;5.50;1.38;;;13.30;99.90;;;;;;4899142;29;20730;-95
2022/06/29 02:58:06;;;;;;;3.13;1.40;;;13.30;99.90;;;;;;4899431;29;20117;-93
2022/06/29 03:00:31;;;;;;;5.18;1.45;;;13.30;99.90;;;;;;4899018;29;20071;-93
2022/06/29 03:02:57;;;;;;;7.72;1.80;;;13.30;99.90;;;;;;4898725;29;20036;-93
2022/06/29 03:05:23;;;;;;;5.40;1.50;;;13.30;99.90;;;;;;4902283;29;20059;-94
2022/06/29 03:07:48;;;;;;;4.38;1.73;;;13.30;99.90;;;;;;4903523;29;20470;-94
2022/06/29 03:10:17;;;;;;;12.25;1.80;;;13.20;99.90;;;;;;4935847;28;20346;-94
2022/06/29 03:12:43;;;;;;;4.68;1.70;;;13.20;99.90;;;;;;4961407;28;20027;-93
2022/06/29 03:15:09;;;;;;;4.18;1.58;;;13.30;99.90;;;;;;4976468;28;20034;-94
2022/06/29 03:17:34;;;;;;;6.47;1.70;;;13.30;99.90;;;;;;4976448;28;20031;-93
2022/06/29 03:20:03;;;;;;;6.13;1.70;;;13.20;99.90;;;;;;4960599;28;20114;-93
2022/06/29 03:22:28;;;;;;;4.72;1.75;;;13.20;99.90;;;;;;4976927;28;20037;-93
2022/06/29 03:24:54;;;;;;;5.15;1.42;;;13.20;99.90;;;;;;4960647;28;20034;-94
2022/06/29 03:27:20;;;;;;;5.88;1.70;;;13.20;99.90;;;;;;4960285;28;20034;-94
2022/06/29 03:29:45;;;;;;;6.88;2.10;;;13.20;99.90;;;;;;4976655;28;20026;-94
2022/06/29 03:32:11;;;;;;;8.73;2.25;;;13.20;99.90;;;;;;4976297;28;20039;-94
2022/06/29 03:34:37;;;;;;;7.47;2.08;;;13.10;99.90;;;;;;4976826;28;20069;-94
2022/06/29 03:37:03;;;;;;;7.82;2.45;;;13.10;99.90;;;;;;4960355;28;20031;-94
2022/06/29 03:39:28;;;;;;;8.07;2.60;;;13.10;99.90;;;;;;4978405;28;20444;-93
2022/06/29 03:41:54;;;;;;;9.70;4.00;;;13.10;99.90;;;;;;4962596;28;20385;-95
2022/06/29 03:44:20;;;;;;;7.95;2.83;;;13.10;99.90;;;;;;4961618;28;20027;-93
2022/06/29 03:46:48;;;;;;;8.70;3.28;;;13.10;99.90;;;;;;4977343;28;20039;-93
2022/06/29 03:49:14;;;;;;;9.93;2.75;;;13.10;99.90;;;;;;4963109;28;20116;-94
2022/06/29 03:51:40;;;;;;;5.40;2.20;;;13.10;99.90;;;;;;4962680;28;20064;-95
2022/06/29 03:54:06;;;;;;;7.00;2.45;;;13.10;99.90;;;;;;4986270;28;20031;-93
2022/06/29 03:56:31;;;;;;;8.70;2.50;;;13.10;99.90;;;;;;4978627;28;20042;-93
2022/06/29 03:58:57;;;;;;;6.97;2.42;;;13.10;99.90;;;;;;4981361;28;20050;-95
2022/06/29 04:01:23;;;;;;;3.53;2.17;;;13.00;99.90;;;;;;4977193;28;20492;-93
2022/06/29 04:03:48;;;;;;;3.42;2.08;;;13.10;99.90;;;;;;4978583;28;20043;-93
2022/06/29 04:06:14;;;;;;;6.20;2.40;;;13.10;99.90;;;;;;4979612;28;20391;-92
2022/06/29 04:08:40;;;;;;;4.28;2.20;;;13.10;99.90;;;;;;4979427;28;20026;-93
2022/06/29 04:11:48;;;;;;;6.72;2.08;;;13.10;99.90;;;;;;4980133;28;20042;-95
2022/06/29 04:13:54;;;;;;;4.18;2.17;;;13.00;99.90;;;;;;4996208;28;20023;-95
2022/06/29 04:16:20;;;;;;;3.05;2.40;;;13.00;99.90;;;;;;4996859;28;20097;-93
2022/06/29 04:18:46;;;;;;;5.72;2.10;;;13.00;99.90;;;;;;4981687;28;20026;-93
2022/06/29 04:21:12;;;;;;;3.08;2.20;;;13.00;99.90;;;;;;4985388;28;20034;-93
2022/06/29 04:23:37;;;;;;;3.85;1.98;;;13.00;99.90;;;;;;4980312;28;20030;-95
2022/06/29 04:26:03;;;;;;;3.42;2.20;;;13.00;99.90;;;;;;4979654;28;20108;-93
2022/06/29 04:28:29;;;;;;;4.00;2.38;;;13.00;99.90;;;;;;4979653;28;20042;-95
2022/06/29 04:30:55;;;;;;;4.78;2.35;;;13.00;99.90;;;;;;4979721;28;20027;-95
2022/06/29 04:33:20;;;;;;;6.32;2.38;;;13.00;99.90;;;;;;4979738;28;20026;-95
2022/06/29 04:35:46;;;;;;;4.35;2.08;;;13.00;99.90;;;;;;4979337;28;20119;-94
2022/06/29 04:38:12;;;;;;;6.55;3.00;;;13.00;99.90;;;;;;4979095;28;20399;-95
2022/06/29 04:40:37;;;;;;;6.53;2.58;;;12.90;99.90;;;;;;4978857;28;20030;-95
2022/06/29 04:43:03;;;;;;;6.72;2.50;;;13.00;99.90;;;;;;4978759;28;20034;-95
2022/06/29 04:48:13;;;;;;;4.43;2.30;;;12.90;99.90;;;;;;4996837;28;20037;-95
2022/06/29 04:50:39;;;;;;;6.55;2.53;;;12.90;99.90;;;;;;4979517;28;20034;-94
2022/06/29 04:53:05;;;;;;;5.57;2.50;;;12.90;99.90;;;;;;4979335;28;20064;-95
2022/06/29 04:55:30;;;;;;;6.35;3.03;;;12.90;99.90;;;;;;4979246;28;20023;-94
2022/06/29 04:57:56;;;;;;;7.32;3.50;;;12.90;99.90;;;;;;4980819;28;20045;-94
2022/06/29 05:00:22;;;;;;;11.02;3.30;;;12.90;99.90;;;;;;4985082;28;20077;-93
2022/06/29 05:02:48;;;;;;;4.82;2.88;;;12.90;99.90;;;;;;4980796;28;20041;-94
2022/06/29 05:05:13;;;;;;;8.13;2.85;;;12.90;99.90;;;;;;4979227;28;20054;-94
2022/06/29 05:07:39;;;;;;;9.05;3.55;;;12.90;99.90;;;;;;4978720;28;20034;-93
2022/06/29 05:10:05;;;;;;;7.65;3.40;;;12.90;99.90;;;;;;4977847;28;20472;-94
2022/06/29 05:12:31;;;;;;;6.82;3.40;;;12.90;99.90;;;;;;4977762;28;20034;-94
2022/06/29 05:14:57;;;;;;;8.07;4.32;;;12.90;99.90;;;;;;4977311;28;20100;-94
2022/06/29 05:17:22;;;;;;;13.32;4.15;;;12.90;99.90;;;;;;4977314;28;20030;-94
2022/06/29 05:19:48;;;;;;;8.90;3.50;;;12.90;99.90;;;;;;4978262;28;20054;-94
2022/06/29 05:22:14;;;;;;;8.20;3.70;;;12.90;99.90;;;;;;4978552;28;20027;-95
2022/06/29 05:24:41;;;;;;;10.45;3.65;;;12.90;99.90;;;;;;4979056;28;20034;-96
2022/06/29 05:27:06;;;;;;;6.50;3.85;;;12.90;99.90;;;;;;4963566;28;20049;-94
2022/06/29 05:29:33;;;;;;;8.05;3.65;;;12.90;99.90;;;;;;4981096;28;20023;-94
2022/06/29 05:31:59;;;;;;;7.70;4.20;;;12.90;99.90;;;;;;4979556;28;20512;-94
2022/06/29 05:34:24;;;;;;;6.65;3.03;;;12.90;99.90;;;;;;4978315;28;20033;-94
2022/06/29 05:36:50;;;;;;;9.18;3.50;;;12.90;99.90;;;;;;4977716;28;20329;-94
2022/06/29 05:39:16;;;;;;;6.68;3.40;;;12.90;99.90;;;;;;4977312;28;20053;-94
2022/06/29 05:41:42;;;;;;;9.88;4.05;;;12.90;99.90;;;;;;4977428;28;20027;-95
2022/06/29 05:44:11;;;;;;;12.52;3.60;;;13.00;99.90;;;;;;4977436;28;20034;-94
2022/06/29 05:46:37;;;;;;;9.23;4.28;;;13.00;99.90;;;;;;4977242;28;20119;-95
2022/06/29 05:49:02;;;;;;;5.45;3.17;;;13.10;99.90;;;;;;4978309;28;20046;-95
2022/06/29 05:51:29;;;;;;;8.68;3.78;;;13.10;99.90;;;;;;4980028;28;20162;-96
2022/06/29 05:53:55;;;;;;;7.93;3.40;;;13.10;99.90;;;;;;4979116;28;20290;-96
2022/06/29 05:56:22;;;;;;;5.07;2.90;;;13.10;99.90;;;;;;4979569;28;20042;-95
2022/06/29 05:58:49;;;;;;;9.15;2.88;;;13.10;99.90;;;;;;4979053;28;20026;-95
2022/06/29 06:01:15;;;;;;;8.63;3.00;;;13.10;99.90;;;;;;4979090;28;20453;-93
2022/06/29 06:03:44;;;;;;;5.97;3.20;;;13.20;99.90;;;;;;4977591;28;20030;-94
2022/06/29 06:06:12;;;;;;;11.63;3.13;;;13.20;99.90;;;;;;4963878;28;20040;-95
2022/06/29 06:08:37;;;;;;;8.57;2.67;;;13.30;99.90;;;;;;4983549;28;20058;-95
2022/06/29 06:11:06;;;;;;;6.95;2.58;;;13.30;99.90;;;;;;4985439;28;20026;-94
2022/06/29 06:13:32;;;;;;;8.77;2.88;;;13.30;99.90;;;;;;4988878;28;20023;-94
2022/06/29 06:15:59;;;;;;;9.70;2.78;;;13.40;99.90;;;;;;4983103;28;20030;-95
2022/06/29 06:18:25;;;;;;;5.95;2.67;;;13.40;99.90;;;;;;4987673;28;20045;-94
2022/06/29 06:20:51;;;;;;;4.90;2.40;;;13.50;99.90;;;;;;4988317;28;20050;-95
2022/06/29 06:23:23;;;;;;;8.73;2.70;;;13.50;99.90;;;;;;4979550;28;20101;-96
2022/06/29 06:25:49;;;;;;;10.90;2.90;;;13.60;99.90;;;;;;4979405;28;20030;-95
2022/06/29 06:28:14;;;;;;;6.13;2.55;;;13.50;99.90;;;;;;4978780;28;20023;-94
2022/06/29 06:30:40;;;;;;;8.23;3.00;;;13.60;99.90;;;;;;4978883;28;20703;-95
2022/06/29 06:33:06;;;;;;;5.75;2.28;;;13.60;99.90;;;;;;4977330;28;20115;-94
2022/06/29 06:35:32;;;;;;;11.00;2.72;;;13.70;99.90;;;;;;4977327;28;20026;-94
2022/06/29 06:37:57;;;;;;;8.05;2.22;;;13.80;99.90;;;;;;4979056;28;20023;-94
2022/06/29 06:43:08;;;;;;;6.55;2.00;;;13.90;99.90;;;;;;4999369;28;20076;-94
2022/06/29 06:45:34;;;;;;;5.05;2.13;;;14.00;99.90;;;;;;4981257;28;20049;-93
2022/06/29 06:47:59;;;;;;;4.70;2.30;;;14.00;99.90;;;;;;4983971;28;20027;-94
2022/06/29 06:50:25;;;;;;;7.28;2.20;;;14.00;99.90;;;;;;4989226;28;20023;-96
2022/06/29 06:52:51;;;;;;;6.88;2.00;;;14.00;99.90;;;;;;4993313;28;20087;-94
2022/06/29 06:55:16;;;;;;;7.80;1.58;;;14.10;99.90;;;;;;4988297;28;20023;-95
2022/06/29 06:57:42;;;;;;;7.05;1.75;;;14.10;99.90;;;;;;4981840;28;20543;-94
2022/06/29 07:00:09;;;;;;;9.25;2.22;;;14.20;99.90;;;;;;4982395;28;20058;-95
2022/06/29 07:02:35;;;;;;;6.00;1.90;;;14.20;99.90;;;;;;4982738;28;20531;-94
2022/06/29 07:05:01;;;;;;;8.38;1.80;;;14.40;99.90;;;;;;4982726;28;20113;-95
2022/06/29 07:07:27;;;;;;;5.13;1.90;;;14.40;99.90;;;;;;4979649;28;20436;-94
2022/06/29 07:09:55;;;;;;;11.48;2.00;;;14.50;99.90;;;;;;4980163;28;20077;-93
2022/06/29 07:12:23;;;;;;;7.63;2.05;;;14.60;99.90;;;;;;4980198;28;20018;-94
2022/06/29 07:14:49;;;;;;;11.65;2.80;;;14.60;99.90;;;;;;4980233;28;20203;-94
2022/06/29 07:17:18;;;;;;;11.27;2.50;;;14.70;99.90;;;;;;4980445;28;20424;-94
2022/06/29 07:19:43;;;;;;;9.18;2.35;;;14.70;99.90;;;;;;4981872;28;20080;-95
2022/06/29 07:22:11;;;;;;;14.27;2.00;;;14.70;99.90;;;;;;4980785;28;20026;-94
2022/06/29 07:24:39;;;;;;;7.53;2.22;;;14.80;99.90;;;;;;4982759;28;20057;-95
2022/06/29 07:27:05;;;;;;;5.43;2.15;;;14.70;99.90;;;;;;4981549;28;20109;-94
2022/06/29 07:29:31;;;;;;;7.78;2.00;;;14.80;99.90;;;;;;4986014;28;20037;-94
2022/06/29 07:31:56;;;;;;;6.18;1.65;;;14.90;99.90;;;;;;4981504;28;20038;-93
2022/06/29 07:34:22;;;;;;;7.68;2.03;;;14.90;99.90;;;;;;4981137;28;20029;-93
2022/06/29 07:36:48;;;;;;;5.53;1.50;;;14.90;99.90;;;;;;4982742;28;20060;-93
2022/06/29 07:39:16;;;;;;;5.43;1.55;;;15.00;99.90;;;;;;4994067;28;20022;-94
2022/06/29 07:41:43;;;;;;;5.38;1.50;;;14.90;99.90;;;;;;5005220;28;20472;-93
2022/06/29 07:44:09;;;;;;;9.75;1.50;;;14.90;99.90;;;;;;4988904;28;20031;-92
2022/06/29 07:46:34;;;;;;;7.00;1.38;;;14.90;99.90;;;;;;4987834;28;20046;-93
2022/06/29 07:49:01;;;;;;;8.27;1.77;;;14.90;99.90;;;;;;4984712;28;20022;-93
2022/06/29 07:51:26;;;;;;;6.25;1.20;;;15.00;99.90;;;;;;4978410;28;20061;-91
2022/06/29 07:53:52;;;;;;;8.93;1.60;;;15.10;99.90;;;;;;4973481;28;20038;-93
2022/06/29 07:56:18;;;;;;;5.43;1.60;;;15.10;99.90;;;;;;4980876;28;20026;-93
2022/06/29 07:58:44;;;;;;;7.10;1.35;;;15.20;99.90;;;;;;4980189;28;20534;-92
2022/06/29 08:01:10;;;;;;;7.10;2.05;;;15.10;99.90;;;;;;4978881;28;20072;-93
2022/06/29 08:03:36;;;;;;;4.68;1.42;;;15.00;99.90;;;;;;4978153;28;20081;-93
2022/06/29 08:06:02;;;;;;;5.05;1.25;;;15.00;99.90;;;;;;4980931;28;20038;-91
2022/06/29 08:08:28;;;;;;;14.20;2.50;;;15.00;99.90;;;;;;4979844;28;20038;-93
2022/06/29 08:10:54;;;;;;;6.57;1.80;;;15.10;99.90;;;;;;4979298;28;20034;-92
2022/06/29 08:13:19;;;;;;;12.13;3.60;;;15.20;99.90;;;;;;4979535;28;20033;-94
2022/06/29 08:15:46;;;;;;;11.02;2.05;;;15.40;99.90;;;;;;4979253;28;20080;-93
2022/06/29 08:18:15;;;;;;;8.20;2.00;;;15.40;99.90;;;;;;4979768;28;20085;-94
2022/06/29 08:20:43;;;;;;;4.97;1.33;;;15.60;99.90;;;;;;4979061;28;20031;-94
2022/06/29 08:23:09;;;;;;;7.57;2.28;;;15.60;99.90;;;;;;4978697;28;20484;-93
2022/06/29 08:25:34;;;;;;;5.43;1.83;;;15.60;99.90;;;;;;4978616;28;20034;-95
2022/06/29 08:28:01;;;;;;;4.72;1.77;;;15.60;99.90;;;;;;4996664;28;20037;-93
2022/06/29 08:30:27;;;;;;;5.03;1.48;;;15.50;99.90;;;;;;4979548;28;20030;-93
2022/06/29 08:32:55;;;;;;;8.05;1.73;;;15.50;99.90;;;;;;4981357;28;20059;-93
2022/06/29 08:35:21;;;;;;;7.10;1.48;;;15.50;99.90;;;;;;4981108;28;20057;-94
2022/06/29 08:37:47;;;;;;;6.50;1.77;;;15.50;99.90;;;;;;4983357;28;20034;-94
2022/06/29 08:40:16;;;;;;;5.20;1.60;;;15.60;99.90;;;;;;4986217;28;20027;-93
2022/06/29 08:42:42;;;;;;;7.50;1.80;;;15.60;99.90;;;;;;4988673;28;20034;-93
2022/06/29 08:45:11;;;;;;;10.60;1.80;;;15.70;99.90;;;;;;4985386;28;20050;-94
2022/06/29 08:47:37;;;;;;;6.35;2.10;;;15.80;99.90;;;;;;4966380;28;20058;-93
2022/06/29 08:50:06;;;;;;;6.18;1.58;;;16.00;99.90;;;;;;4981646;28;20062;-93
2022/06/29 08:52:35;;;;;;;6.25;1.75;;;15.90;99.90;;;;;;4979929;28;20046;-92
2022/06/29 08:55:06;;;;;;;5.25;1.52;;;15.90;99.90;;;;;;4981050;28;20058;-95
2022/06/29 08:57:36;;;;;;;;;;;15.90;99.90;;;;;;4983639;28;20498;-94
2022/06/29 09:00:02;;;;;;;2.80;1.45;;;15.90;99.90;;;;;;4990910;28;19905;-95
2022/06/29 09:02:28;;;;;;;3.35;1.30;;;15.90;99.90;;;;;;4981739;28;20026;-93
2022/06/29 09:04:54;;;;;;;5.82;2.25;;;16.00;99.90;;;;;;4979643;28;20047;-94
2022/06/29 09:07:20;;;;;;;6.30;1.33;;;16.00;99.90;;;;;;4979784;28;20034;-92
2022/06/29 09:10:07;;;;;;;5.53;1.50;;;16.10;99.90;;;;;;4979006;28;20120;-93
2022/06/29 09:12:33;;;;;;;7.68;1.70;;;16.30;99.90;;;;;;4978863;28;20358;-95
2022/06/29 09:15:00;;;;;;;3.95;1.77;;;16.60;99.90;;;;;;4978711;28;20041;-93
2022/06/29 09:17:26;;;;;;;3.83;1.38;;;16.80;99.90;;;;;;4975479;28;20045;-94
2022/06/29 09:19:53;;;;;;;9.60;1.60;;;17.10;99.90;;;;;;4960363;28;20034;-94
2022/06/29 09:22:19;;;;;;;4.60;1.13;;;17.20;99.90;;;;;;4969545;28;20035;-94
2022/06/29 09:24:45;;;;;;;8.10;1.27;;;17.40;99.90;;;;;;4979834;28;20488;-93
2022/06/29 09:27:12;;;;;;;6.57;1.50;;;17.60;99.90;;;;;;4978417;28;20770;-95
2022/06/29 09:29:41;;;;;;;6.90;1.23;;;17.60;99.90;;;;;;4977680;28;20022;-92
2022/06/29 09:32:09;;;;;;;6.68;1.40;;;17.50;99.90;;;;;;4978747;28;20033;-92
2022/06/29 09:34:37;;;;;;;4.57;1.20;;;17.50;99.90;;;;;;4976690;28;20018;-93
2022/06/29 09:37:04;;;;;;;4.32;1.63;;;17.40;99.90;;;;;;4977107;28;20038;-94
2022/06/29 09:39:47;;;;;;;3.85;1.30;;;17.50;99.90;;;;;;4977637;28;20035;-92
2022/06/29 09:42:17;;;;;;;6.95;1.30;;;17.40;99.90;;;;;;4977811;28;20058;-93
2022/06/29 09:44:44;;;;;;;4.63;1.30;;;17.40;99.90;;;;;;4980874;28;20030;-94
2022/06/29 09:47:15;;;;;;;8.13;1.98;;;17.40;99.90;;;;;;4978647;28;20042;-94
2022/06/29 09:49:42;;;;;;;6.20;1.40;;;17.40;99.90;;;;;;4980368;28;20090;-93
2022/06/29 09:52:08;;;;;;;5.45;1.45;;;17.40;99.90;;;;;;4993354;28;20031;-92
2022/06/29 09:54:51;;;;;;;9.07;1.80;;;17.40;99.90;;;;;;4994152;28;20062;-93
2022/06/29 09:57:20;;;;;;;5.85;1.42;;;17.30;99.90;;;;;;4984748;28;20022;-93
2022/06/29 10:02:43;;;;;;;5.72;1.27;;;17.30;99.90;;;;;;4996640;28;20053;-91
2022/06/29 10:05:17;;;;;;;6.13;1.88;;;17.40;99.90;;;;;;4978731;28;20080;-94
2022/06/29 10:07:45;;;;;;;5.70;1.35;;;17.60;99.90;;;;;;4979486;28;20070;-94
2022/06/29 10:10:23;;;;;;;8.35;1.38;;;17.70;99.90;;;;;;4979126;28;20047;-94
2022/06/29 10:16:11;;;;;;;6.85;1.50;;;18.00;99.00;;;;;;4995920;28;20089;-95
2022/06/29 10:19:02;;;;;;;7.22;1.40;;;18.00;98.80;;;;;;4984201;28;20120;-93
2022/06/29 10:21:28;;;;;;;;;;;18.00;98.70;;;;;;4982881;28;20037;-94
2022/06/29 10:23:56;;;;;;;9.50;1.55;;;18.10;98.10;;;;;;4980035;28;19909;-94
2022/06/29 10:26:31;;;;;;;7.30;1.60;;;18.00;98.00;;;;;;4982300;28;20038;-93
2022/06/29 10:29:17;;;;;;;11.93;1.73;;;18.10;97.50;;;;;;4979475;28;20057;-93
2022/06/29 10:31:51;;;;;;;6.07;1.30;;;18.20;97.40;;;;;;4979097;28;20030;-94
2022/06/29 10:37:21;;;;;;;8.50;2.50;;;18.20;96.40;;;;;;5000879;28;20046;-94
2022/06/29 10:39:51;;;;;;;5.65;1.63;;;18.40;96.20;;;;;;4997910;28;20049;-95
2022/06/29 10:45:16;;;;;;;5.85;1.90;;;19.00;94.50;;;;;;4996859;28;20058;-92
2022/06/29 10:47:58;;;;;;;7.30;1.48;;;19.30;93.50;;;;;;4983457;28;20041;-93
2022/06/29 10:50:24;;;;;;;5.50;1.60;;;19.50;93.00;;;;;;4983244;28;20031;-96
2022/06/29 10:52:55;;;;;;;6.30;1.45;;;19.60;92.20;;;;;;4990366;28;20050;-95
2022/06/29 10:55:22;;;;;;;7.20;1.33;;;19.50;91.00;;;;;;4989525;28;20026;-93
2022/06/29 10:57:48;;;;;;;4.65;1.20;;;19.40;90.80;;;;;;4999708;28;20032;-95
2022/06/29 11:00:22;;;;;;;3.97;1.60;;;19.50;90.70;;;;;;4999340;28;20042;-94
2022/06/29 11:02:52;;;;;;;5.72;1.38;;;19.60;90.20;;;;;;4990526;28;20062;-94
2022/06/29 11:05:19;;;;;;;4.97;1.45;;;19.90;90.60;;;;;;4979788;28;20043;-95
2022/06/29 11:13:24;;;;;;;4.63;1.35;;;20.20;87.00;;;;;;4996991;28;20033;-94
2022/06/29 11:15:55;;;;;;;3.47;1.10;;;20.10;86.30;;;;;;4979041;28;20038;-93
2022/06/29 11:18:23;;;;;;;;;;;20.00;85.80;;;;;;4977304;28;20027;-91
2022/06/29 11:20:51;;;;;;;3.85;1.50;;;20.20;86.10;;;;;;4976507;28;19906;-93
2022/06/29 11:23:21;;;;;;;5.28;1.23;;;20.40;85.40;;;;;;4976182;28;20031;-95
2022/06/29 11:25:49;;;;;;;7.53;3.50;;;20.40;83.80;;;;;;4978494;28;20026;-94
2022/06/29 11:28:20;;;;;;;3.13;1.17;;;20.40;82.80;;;;;;5021190;23;20074;-93
2022/06/29 11:31:08;;;;;;;5.57;1.10;;;20.30;82.40;;;;;;4998425;28;20037;-94
2022/06/29 11:33:39;;;;;;;5.40;1.55;;;20.20;82.20;;;;;;4981150;28;20037;-94
2022/06/29 11:36:11;;;;;;;9.75;1.42;;;20.00;81.60;;;;;;4982447;28;20022;-94
2022/06/29 11:38:48;;;;;;;6.65;1.35;;;19.80;82.60;;;;;;5009223;28;20036;-93
2022/06/29 11:41:17;;;;;;;4.13;1.00;;;19.60;83.40;;;;;;5011194;28;20030;-95
2022/06/29 11:43:45;;;;;;;3.88;1.40;;;19.40;84.40;;;;;;5026478;28;20026;-95
2022/06/29 11:46:19;;;;;;;3.55;1.30;;;19.30;85.60;;;;;;4994257;28;20092;-94
2022/06/29 11:51:57;;;;;;;2.78;1.17;;;19.20;86.30;;;;;;5004920;28;20042;-93
2022/06/29 11:54:35;;;;;;;10.10;1.85;;;19.40;86.00;;;;;;4984965;28;20046;-93
2022/06/29 11:57:13;;;;;;;4.93;1.50;;;19.40;86.00;;;;;;4981638;28;20026;-96
2022/06/29 11:59:39;;;;;;;7.35;1.70;;;19.40;86.40;;;;;;4980791;28;20027;-94
2022/06/29 12:02:05;;;;;;;4.45;1.10;;;19.40;86.60;;;;;;4981638;28;20037;-94
2022/06/29 12:04:33;;;;;;;10.18;1.25;;;19.40;86.40;;;;;;4999328;28;20088;-95
2022/06/29 12:07:10;;;;;;;4.35;1.50;;;19.60;86.30;;;;;;5002640;28;20038;-95
2022/06/29 12:09:37;;;;;;;6.25;1.42;;;19.80;86.10;;;;;;5004001;28;20026;-95
2022/06/29 12:12:08;;;;;;;7.22;1.38;;;20.10;85.20;;;;;;5005634;28;20109;-96
2022/06/29 12:14:34;;;;;;;5.95;1.35;;;20.30;84.00;;;;;;5002458;28;20084;-96
2022/06/29 12:17:00;;;;;;;3.42;1.27;;;20.30;82.50;;;;;;5000497;28;20033;-95
2022/06/29 12:19:26;;;;;;;3.05;1.05;;;20.30;81.60;;;;;;4988973;28;20161;-94
2022/06/29 12:21:53;;;;;;;4.97;1.63;;;20.10;81.50;;;;;;5001461;28;20046;-95
2022/06/29 12:24:20;;;;;;;8.13;1.63;;;20.10;82.00;;;;;;4987275;28;20145;-93
2022/06/29 12:26:47;;;;;;;4.90;1.30;;;20.20;82.40;;;;;;4978787;28;20050;-95
2022/06/29 12:29:14;;;;;;;6.80;1.48;;;20.50;82.60;;;;;;4979129;28;20038;-94
2022/06/29 12:31:44;;;;;;;6.82;1.38;;;20.60;82.20;;;;;;4979583;28;20026;-94
2022/06/29 12:34:11;;;;;;;6.00;1.42;;;20.80;82.00;;;;;;4969506;28;20022;-95
2022/06/29 12:36:37;;;;;;;6.55;1.67;;;20.80;81.00;;;;;;4981988;28;20041;-92
2022/06/29 12:39:04;;;;;;;4.30;1.35;;;20.70;80.10;;;;;;4979072;28;20026;-89
2022/06/29 12:41:31;;;;;;;6.88;1.35;;;20.80;80.20;;;;;;4977592;28;20042;-90
2022/06/29 12:43:57;;;;;;;7.45;1.30;;;21.10;80.10;;;;;;4977638;28;20026;-90
2022/06/29 12:46:23;;;;;;;5.00;1.25;;;21.20;78.30;;;;;;4969321;28;20452;-95
2022/06/29 12:48:48;;;;;;;5.40;1.08;;;21.10;78.50;;;;;;4964328;28;20081;-95
2022/06/29 12:51:14;;;;;;;4.07;1.40;;;21.00;78.40;;;;;;4962944;28;20027;-96
2022/06/29 12:53:40;;;;;;;5.63;1.48;;;20.80;78.20;;;;;;4964237;28;20091;-95
2022/06/29 12:56:06;;;;;;;4.18;1.40;;;20.60;79.40;;;;;;4969886;28;20037;-93
2022/06/29 12:58:33;;;;;;;5.45;1.40;;;20.30;80.90;;;;;;4969823;28;20062;-93
2022/06/29 13:00:59;;;;;;;8.27;1.98;;;20.00;82.70;;;;;;4961562;28;20045;-93
2022/06/29 13:03:24;;;;;;;6.43;1.90;;;19.80;84.50;;;;;;4961812;28;20122;-93
2022/06/29 13:05:55;;;;;;;7.13;1.55;;;19.70;86.10;;;;;;4962827;28;20035;-95
2022/06/29 13:08:21;;;;;;;4.32;1.88;;;19.70;87.40;;;;;;4965020;28;20491;-96
2022/06/29 13:10:47;;;;;;;9.07;1.80;;;19.70;87.90;;;;;;4961956;28;20412;-95
2022/06/29 13:13:13;;;;;;;4.68;2.08;;;19.60;87.90;;;;;;4960323;28;20117;-95
2022/06/29 13:15:39;;;;;;;7.15;1.40;;;19.70;88.40;;;;;;4961213;28;20031;-95
2022/06/29 13:18:04;;;;;;;8.05;1.80;;;19.60;89.10;;;;;;4963402;28;20480;-95
2022/06/29 13:20:30;;;;;;;6.18;1.98;;;19.60;89.10;;;;;;4964231;28;20035;-95